• Join FlightAware (Why Join?)
  • Login
  • US Flag 
11:58PM EDT


 

Airport Tracker/Info


-or-


 

Live Flight TrackerFlight Track Log ✈ N700QA ✈ 10-Sep-2013 ✈ KSAT - KHOU

Flight Track Log - Related Links

Times and Time Zones

All times are in EDT time to prevent confusion due to time zone crossing. See the N700QA flight status page for this flight to view local times or setup timezone preferences in your user account.

Time Position Orientation Groundspeed Altitude Reporting Facility
EDT Latitude Longitude Course Direction KTS MPH feet Rate Location/Type
01:47PM 29.5247 -98.4636 90° East 165 190 1,400  Level Houston Center
01:49PM 29.4769 -98.3889 126° Southeast 210 242 5,700 2,880 Climbing Houston Center
01:49PM 29.4756 -98.3856 116° Southeast 214 246 5,900 2,340 Climbing Houston Center
01:50PM 29.4978 -98.3247 67° East 226 260 8,100 2,400 Climbing Houston Center
01:50PM 29.5011 -98.3200 51° Northeast 241 277 8,300 2,760 Climbing Houston Center
01:51PM 29.5342 -98.2481 62° Northeast 255 293 11,000 2,460 Climbing Houston Center
01:52PM 29.5739 -98.1764 57° Northeast 270 311 13,200 2,100 Climbing Houston Center
01:53PM 29.5602 -97.8823 90° East  Level Estimated
01:53PM 29.6122 -98.0981 61° Northeast 283 326 15,400  Level Houston Center
01:54PM 29.6533 -98.0022 64° Northeast 315 362 16,600 720 Climbing Houston Center
01:55PM 29.6453 -97.8903 95° East 350 403 16,900 120 Climbing Houston Center
01:56PM 29.6236 -97.7761 102° East 364 419 16,900  Level Houston Center
01:57PM 29.6044 -97.6692 102° East 350 403 16,900  Level Houston Center
01:58PM 29.5864 -97.5619 101° East 344 396 17,000  Climbing Houston Center
01:59PM 29.5678 -97.4581 102° East 335 386 17,000  Level Houston Center
02:00PM 29.5483 -97.3542 102° East 333 383 17,000 -60 Level Houston Center
02:01PM 29.5386 -97.2478 96° East 335 386 16,900  Descending Houston Center
02:02PM 29.5292 -97.1200 95° East 335 386 17,000  Climbing Houston Center
02:03PM 29.5247 -97.0139 93° East 347 399 17,000 -60 Level Houston Center
02:04PM 29.5186 -96.9050 94° East 327 376 16,900 -600 Descending Houston Center
02:05PM 29.5097 -96.8028 96° East 318 366 15,800 -1,140 Descending Houston Center
02:06PM 29.4922 -96.7103 102° East 296 341 14,600 -1,320 Descending Houston Center
02:07PM 29.4433 -96.6461 131° Southeast 269 310 13,100 -1,440 Descending Houston Center
02:08PM 29.3875 -96.5944 141° Southeast 259 298 11,700 -960 Descending Houston Center
02:09PM 29.3367 -96.5500 143° Southeast 233 268 11,200 -540 Descending Houston Center
02:09PM 29.3119 -96.5303 145° Southeast 235 270 11,000 -240 Descending Houston Center
02:10PM 29.2908 -96.4800 116° Southeast 279 321 11,000  Level Houston Center
02:10PM 29.2900 -96.4939 266° West 253 291 11,000  Level Houston Center
02:11PM 29.3014 -96.3806 83° East 327 376 11,000  Level Houston Center
02:11PM 29.3011 -96.3806 180° South 298 343 11,000  Level Houston Center
02:12PM 29.3033 -96.2800 89° East 335 386 11,000  Level Houston Center
02:12PM 29.3050 -96.2761 64° Northeast 322 371 11,000  Level Houston Center
02:13PM 29.3056 -96.1817 90° East 278 320 11,000  Level Houston Center
02:13PM 29.3039 -96.1853 242° Southwest 291 335 11,000 -120 Level Houston Center
02:14PM 29.3061 -96.0906 88° East 289 333 10,900 -120 Descending Houston Center
02:14PM 29.3056 -96.0936 258° West 289 333 10,900 60 Level Houston Center
02:15PM 29.3322 -96.0122 69° East 287 330 11,000 -240 Climbing Houston Center
02:16PM 29.3972 -95.9428 43° Northeast 292 336 10,500 -480 Descending Houston Center
02:16PM 29.4058 -95.9356 36° Northeast 296 341 10,500 -1,020 Level Houston Center
02:17PM 29.4436 -95.8689 57° Northeast 289 333 9,500 -1,200 Descending Houston Center
02:18PM 29.4450 -95.7822 89° East 226 260 8,100 -1,260 Descending Houston Center
02:18PM 29.4458 -95.7908 276° West 251 289 8,200 -1,680 Climbing Houston Center
02:19PM 29.4528 -95.7069 85° East 219 252 6,400 -1,500 Descending Houston Center
02:20PM 29.4506 -95.7214 260° West 223 257 6,700 -1,620 Climbing Houston Center
02:21PM 29.4553 -95.6394 86° East 212 244 4,800 -1,860 Descending Houston Center
02:21PM 29.4561 -95.6392 16° North 217 250 4,800 -1,500 Level Houston Center
02:22PM 29.4669 -95.5736 79° East 211 243 3,200 -900 Descending Houston Center
02:23PM 29.4964 -95.5147 60° Northeast 210 242 3,000 -240 Descending Houston Center
02:23PM 29.4953 -95.5144 168° South 211 243 3,000  Level Houston Center
02:24PM 29.5283 -95.4486 60° Northeast 221 254 3,000  Level Houston Center
02:24PM 29.5258 -95.4533 239° Southwest 217 250 3,000 -420 Level Houston Center
02:25PM 29.5564 -95.3875 62° Northeast 215 247 2,600 -420 Descending Houston Center
02:25PM 29.5547 -95.3931 251° West 216 249 2,600 -1,200 Level Houston Center
02:26PM 29.5897 -95.3403 53° Northeast 185 213 1,400 -1,200 Descending Houston Center
02:26PM 29.5872 -95.3417 206° Southwest 206 237 1,400 -900 Level Houston Center
02:27PM 29.6264 -95.2994 43° Northeast 176 203 400 -600 Descending Houston Center
02:28PM 29.6547 -95.2656 46° Northeast 171 197 200 -240 Descending Houston Center